createdAt,value
2022-08-14T00:00:11.051Z,97828.50
2022-08-14T00:02:44.303Z,97822.59
2022-08-14T00:05:18.946Z,97828.09
2022-08-14T00:07:51.019Z,97815.19
2022-08-14T00:10:52.148Z,97817.69
2022-08-14T00:13:13.774Z,97813.47
2022-08-14T00:15:48.402Z,97818.09
2022-08-14T00:18:30.393Z,97810.53
2022-08-14T00:21:11.622Z,97817.19
2022-08-14T00:23:43.228Z,97806.97
2022-08-14T00:26:21.671Z,97807.31
2022-08-14T00:28:53.331Z,97807.19
2022-08-14T00:31:34.693Z,97805.19
2022-08-14T00:34:36.576Z,97798.22
2022-08-14T00:37:01.874Z,97807.38
2022-08-14T00:39:33.372Z,97800.13
2022-08-14T00:42:02.667Z,97796.53
2022-08-14T00:44:33.370Z,97800.53
2022-08-14T00:47:03.666Z,97802.69
2022-08-14T00:49:38.323Z,97796.72
2022-08-14T00:52:18.007Z,97802.03
2022-08-14T00:54:57.869Z,97800.56
2022-08-14T00:57:32.075Z,97798.09
2022-08-14T01:00:03.168Z,97798.09
2022-08-14T01:02:32.465Z,97795.16
2022-08-14T01:05:02.867Z,97801.16
2022-08-14T01:07:38.655Z,97793.44
2022-08-14T01:10:18.920Z,97799.22
2022-08-14T01:12:48.809Z,97800.00
2022-08-14T01:15:31.636Z,97803.53
2022-08-14T01:18:27.990Z,97803.63
2022-08-14T01:21:11.847Z,97796.88
2022-08-14T01:23:47.259Z,97796.63
2022-08-14T01:26:23.516Z,97801.50
2022-08-14T01:29:07.443Z,97807.34
2022-08-14T01:31:50.383Z,97803.41
2022-08-14T01:35:17.569Z,97804.31
2022-08-14T01:37:12.714Z,97785.78
2022-08-14T01:39:47.180Z,97796.94
2022-08-14T01:42:31.425Z,97787.88
2022-08-14T01:45:12.757Z,97795.63
2022-08-14T01:47:47.184Z,97786.91
2022-08-14T01:50:18.961Z,97787.13
2022-08-14T01:52:58.613Z,97789.97
2022-08-14T01:55:32.504Z,97787.69
2022-08-14T01:58:19.526Z,97794.44
2022-08-14T02:00:54.960Z,97786.19
2022-08-14T02:03:30.967Z,97792.38
2022-08-14T02:06:03.911Z,97784.53
2022-08-14T02:08:52.798Z,97781.78
2022-08-14T02:11:27.047Z,97775.00
2022-08-14T02:14:07.158Z,97788.84
2022-08-14T02:16:41.523Z,97783.78
2022-08-14T02:19:15.013Z,97781.94
2022-08-14T02:21:48.743Z,97792.44
2022-08-14T02:24:38.834Z,97797.44
2022-08-14T02:28:24.681Z,97785.06
2022-08-14T02:30:02.827Z,97793.97
2022-08-14T02:32:44.644Z,97792.69
2022-08-14T02:35:17.997Z,97783.22
2022-08-14T02:37:49.426Z,97777.31
2022-08-14T02:40:20.318Z,97771.53
2022-08-14T02:42:54.636Z,97775.13
2022-08-14T02:45:38.849Z,97780.56
2022-08-14T02:49:03.350Z,97779.44
2022-08-14T02:51:08.942Z,97779.88
2022-08-14T02:53:42.453Z,97790.97
2022-08-14T02:56:30.097Z,97786.66
2022-08-14T02:59:05.556Z,97784.41
2022-08-14T03:01:43.876Z,97785.19
2022-08-14T03:04:20.872Z,97791.00
2022-08-14T03:06:58.043Z,97788.19
2022-08-14T03:10:26.729Z,97783.97
2022-08-14T03:12:32.389Z,97786.13
2022-08-14T03:15:16.479Z,97784.81
2022-08-14T03:17:57.062Z,97790.56
2022-08-14T03:20:29.206Z,97788.41
2022-08-14T03:23:03.177Z,97789.44
2022-08-14T03:25:34.336Z,97787.00
2022-08-14T03:28:14.354Z,97795.75
2022-08-14T03:30:46.224Z,97798.59
2022-08-14T03:33:15.367Z,97797.50
2022-08-14T03:36:00.293Z,97794.50
2022-08-14T03:39:14.959Z,97790.66
2022-08-14T03:41:26.449Z,97790.22
2022-08-14T03:44:01.530Z,97781.84
2022-08-14T03:46:54.460Z,97780.75
2022-08-14T03:49:29.666Z,97776.13
2022-08-14T03:52:00.908Z,97778.38
2022-08-14T03:54:35.826Z,97773.63
2022-08-14T03:57:06.733Z,97773.97
2022-08-14T03:59:36.796Z,97774.34
2022-08-14T04:02:37.237Z,97772.38
2022-08-14T04:04:57.336Z,97775.97
2022-08-14T04:07:49.721Z,97769.31
2022-08-14T04:10:32.657Z,97771.25
2022-08-14T04:13:03.449Z,97769.91
2022-08-14T04:15:56.748Z,97774.66
2022-08-14T04:18:24.248Z,97772.59
2022-08-14T04:20:54.541Z,97777.66
2022-08-14T04:23:29.946Z,97774.50
2022-08-14T04:26:04.827Z,97773.25
2022-08-14T04:29:08.054Z,97775.53
2022-08-14T04:33:10.696Z,97776.97
2022-08-14T04:34:24.234Z,97779.28
2022-08-14T04:37:17.463Z,97780.97
2022-08-14T04:40:09.155Z,97789.16
2022-08-14T04:43:00.782Z,97775.00
2022-08-14T04:45:40.994Z,97780.28
2022-08-14T04:48:38.692Z,97778.88
2022-08-14T04:51:10.696Z,97776.59
2022-08-14T04:53:44.596Z,97779.56
2022-08-14T04:56:30.832Z,97780.13
2022-08-14T04:59:10.136Z,97788.16
2022-08-14T05:01:48.874Z,97786.56
2022-08-14T05:04:21.017Z,97773.34
2022-08-14T05:06:55.153Z,97777.75
2022-08-14T05:09:29.405Z,97775.34
2022-08-14T05:13:11.148Z,97769.13
2022-08-14T05:14:54.660Z,97763.31
2022-08-14T05:17:28.854Z,97767.28
2022-08-14T05:21:56.098Z,97760.28
2022-08-14T05:23:03.652Z,97768.69
2022-08-14T05:25:34.389Z,97762.44
2022-08-14T05:28:14.189Z,97756.44
2022-08-14T05:30:46.846Z,97756.66
2022-08-14T05:33:18.668Z,97761.81
2022-08-14T05:35:51.042Z,97753.38
2022-08-14T05:38:30.686Z,97751.13
2022-08-14T05:41:02.345Z,97750.72
2022-08-14T05:43:41.613Z,97756.81
2022-08-14T05:46:15.414Z,97757.69
2022-08-14T05:48:45.477Z,97756.25
2022-08-14T05:51:14.896Z,97755.34
2022-08-14T05:54:00.307Z,97761.97
2022-08-14T05:56:37.116Z,97762.06
2022-08-14T05:59:07.221Z,97770.63
2022-08-14T06:01:36.777Z,97774.44
2022-08-14T06:04:06.256Z,97769.38
2022-08-14T06:06:38.376Z,97768.75
2022-08-14T06:09:10.599Z,97773.81
2022-08-14T06:11:39.863Z,97767.69
2022-08-14T06:14:20.820Z,97772.56
2022-08-14T06:16:53.049Z,97768.44
2022-08-14T06:19:23.462Z,97758.13
2022-08-14T06:21:59.006Z,97760.78
2022-08-14T06:24:34.659Z,97758.06
2022-08-14T06:27:09.975Z,97756.09
2022-08-14T06:29:40.377Z,97748.94
2022-08-14T06:32:38.726Z,97746.91
2022-08-14T06:35:09.122Z,97755.34
2022-08-14T06:37:45.205Z,97754.25
2022-08-14T06:40:26.920Z,97751.84
2022-08-14T06:43:00.366Z,97755.16
2022-08-14T06:45:32.727Z,97763.03
2022-08-14T06:48:06.327Z,97765.22
2022-08-14T06:50:42.200Z,97770.22
2022-08-14T06:53:16.585Z,97775.41
2022-08-14T06:55:53.228Z,97774.44
2022-08-14T06:58:30.952Z,97777.03
2022-08-14T07:01:27.116Z,97779.94
2022-08-14T07:04:23.169Z,97768.03
2022-08-14T07:06:58.495Z,97774.06
2022-08-14T07:09:40.496Z,97776.00
2022-08-14T07:12:34.757Z,97778.81
2022-08-14T07:15:05.905Z,97775.94
2022-08-14T07:17:36.316Z,97776.59
2022-08-14T07:20:07.616Z,97779.88
2022-08-14T07:22:55.863Z,97784.22
2022-08-14T07:25:32.564Z,97782.06
2022-08-14T07:28:12.866Z,97780.72
2022-08-14T07:30:50.737Z,97780.84
2022-08-14T07:33:29.300Z,97782.19
2022-08-14T07:36:26.263Z,97766.38
2022-08-14T07:38:53.095Z,97772.72
2022-08-14T07:41:22.180Z,97774.06
2022-08-14T07:43:55.807Z,97782.50
2022-08-14T07:46:28.299Z,97776.28
2022-08-14T07:48:58.993Z,97767.44
2022-08-14T07:51:36.631Z,97775.31
2022-08-14T07:54:11.103Z,97772.69
2022-08-14T07:56:48.164Z,97767.75
2022-08-14T07:59:41.490Z,97769.06
2022-08-14T08:02:18.087Z,97764.06
2022-08-14T08:04:54.026Z,97773.47
2022-08-14T08:07:30.136Z,97771.88
2022-08-14T08:10:31.183Z,97774.22
2022-08-14T08:13:18.076Z,97777.59
2022-08-14T08:15:56.601Z,97778.66
2022-08-14T08:18:29.814Z,97778.38
2022-08-14T08:21:00.696Z,97780.13
2022-08-14T08:23:43.711Z,97787.34
2022-08-14T08:26:20.775Z,97791.44
2022-08-14T08:28:58.040Z,97786.00
2022-08-14T08:31:33.142Z,97791.69
2022-08-14T08:34:07.402Z,97791.63
2022-08-14T08:36:46.488Z,97793.63
2022-08-14T08:39:22.583Z,97792.19
2022-08-14T08:41:53.609Z,97788.34
2022-08-14T08:44:32.663Z,97799.69
2022-08-14T08:47:06.771Z,97787.84
2022-08-14T08:49:59.295Z,97795.47
2022-08-14T08:52:31.158Z,97792.53
2022-08-14T08:55:05.031Z,97789.31
2022-08-14T08:57:37.607Z,97788.03
2022-08-14T09:00:24.894Z,97779.13
2022-08-14T09:03:03.221Z,97780.09
2022-08-14T09:05:37.318Z,97772.25
2022-08-14T09:08:30.892Z,97776.19
2022-08-14T09:11:18.780Z,97778.78
2022-08-14T09:13:53.247Z,97766.91
2022-08-14T09:16:25.345Z,97764.06
2022-08-14T09:18:57.507Z,97761.88
2022-08-14T09:21:31.695Z,97765.63
2022-08-14T09:24:30.248Z,97761.25
2022-08-14T09:26:50.967Z,97756.16
2022-08-14T09:29:23.520Z,97761.84
2022-08-14T09:31:58.201Z,97753.34
2022-08-14T09:34:59.272Z,97747.06
2022-08-14T09:37:38.729Z,97738.25
2022-08-14T09:40:22.284Z,97738.97
2022-08-14T09:43:05.600Z,97736.91
2022-08-14T09:45:53.298Z,97735.06
2022-08-14T09:48:29.857Z,97722.44
2022-08-14T09:54:18.578Z,97714.75
2022-08-14T09:56:45.761Z,97714.31
2022-08-14T09:59:22.272Z,97729.91
2022-08-14T10:01:53.234Z,97715.72
2022-08-14T10:04:36.544Z,97712.31
2022-08-14T10:07:10.231Z,97718.19
2022-08-14T10:09:59.898Z,97703.00
2022-08-14T10:12:52.902Z,97699.59
2022-08-14T10:15:29.777Z,97703.41
2022-08-14T10:18:17.215Z,97693.56
2022-08-14T10:20:57.549Z,97700.47
2022-08-14T10:23:39.704Z,97698.03
2022-08-14T10:26:11.975Z,97691.66
2022-08-14T10:29:18.621Z,97693.59
2022-08-14T10:31:45.876Z,97693.47
2022-08-14T10:34:29.038Z,97692.47
2022-08-14T10:37:14.265Z,97692.00
2022-08-14T10:40:05.629Z,97683.38
2022-08-14T10:42:43.592Z,97683.75
2022-08-14T10:45:22.036Z,97680.72
2022-08-14T10:48:07.847Z,97675.25
2022-08-14T10:50:46.528Z,97683.09
2022-08-14T10:53:15.896Z,97685.63
2022-08-14T10:55:48.251Z,97680.59
2022-08-14T10:58:32.818Z,97682.53
2022-08-14T11:01:05.589Z,97678.38
2022-08-14T11:03:55.726Z,97683.06
2022-08-14T11:06:27.251Z,97673.84
2022-08-14T11:08:56.597Z,97666.44
2022-08-14T11:11:28.563Z,97666.94
2022-08-14T11:14:09.384Z,97662.41
2022-08-14T11:16:40.583Z,97662.88
2022-08-14T11:19:11.319Z,97652.81
2022-08-14T11:21:45.799Z,97656.13
2022-08-14T11:24:55.257Z,97653.75
2022-08-14T11:27:11.366Z,97652.22
2022-08-14T11:29:42.263Z,97649.50
2022-08-14T11:32:12.103Z,97649.78
2022-08-14T11:34:41.917Z,97650.75
2022-08-14T11:37:21.535Z,97643.31
2022-08-14T11:40:02.222Z,97644.25
2022-08-14T11:42:58.445Z,97646.78
2022-08-14T11:45:23.444Z,97644.19
2022-08-14T11:48:12.584Z,97633.88
2022-08-14T11:50:43.437Z,97638.97
2022-08-14T11:53:22.147Z,97643.53
2022-08-14T11:55:58.489Z,97627.66
2022-08-14T11:58:31.224Z,97632.53
2022-08-14T12:01:07.175Z,97620.28
2022-08-14T12:03:52.295Z,97627.31
2022-08-14T12:06:39.186Z,97614.81
2022-08-14T12:09:13.921Z,97610.03
2022-08-14T12:11:46.878Z,97614.06
2022-08-14T12:14:30.440Z,97610.56
2022-08-14T12:17:09.625Z,97609.38
2022-08-14T12:19:51.449Z,97611.50
2022-08-14T12:22:40.172Z,97615.88
2022-08-14T12:25:15.432Z,97608.97
2022-08-14T12:27:53.183Z,97599.91
2022-08-14T12:30:42.571Z,97596.75
2022-08-14T12:33:26.996Z,97595.97
2022-08-14T12:36:04.520Z,97587.72
2022-08-14T12:38:38.699Z,97598.97
2022-08-14T12:41:16.423Z,97588.75
2022-08-14T12:43:53.704Z,97586.69
2022-08-14T12:46:29.247Z,97591.91
2022-08-14T12:49:02.384Z,97589.09
2022-08-14T12:51:32.572Z,97586.88
2022-08-14T12:54:18.614Z,97585.63
2022-08-14T12:57:07.948Z,97588.75
2022-08-14T12:59:42.829Z,97582.72
2022-08-14T13:02:25.256Z,97579.69
2022-08-14T13:04:56.751Z,97564.56
2022-08-14T13:07:32.006Z,97565.88
2022-08-14T13:10:46.129Z,97557.22
2022-08-14T13:13:15.469Z,97548.81
2022-08-14T13:15:46.483Z,97542.16
2022-08-14T13:18:18.083Z,97530.06
2022-08-14T13:20:55.400Z,97532.00
2022-08-14T13:23:31.604Z,97539.22
2022-08-14T13:26:02.821Z,97523.25
2022-08-14T13:28:41.269Z,97536.25
2022-08-14T13:31:30.037Z,97524.97
2022-08-14T13:34:04.511Z,97535.63
2022-08-14T13:36:54.520Z,97516.47
2022-08-14T13:39:26.347Z,97530.91
2022-08-14T13:41:57.550Z,97522.16
2022-08-14T13:44:28.800Z,97517.09
2022-08-14T13:46:58.767Z,97517.69
2022-08-14T13:49:29.378Z,97518.19
2022-08-14T13:52:01.447Z,97520.38
2022-08-14T13:54:32.878Z,97517.75
2022-08-14T13:57:03.796Z,97508.09
2022-08-14T13:59:38.653Z,97497.19
2022-08-14T14:02:09.545Z,97483.22
2022-08-14T14:04:46.401Z,97493.84
2022-08-14T14:07:23.563Z,97497.72
2022-08-14T14:09:56.664Z,97498.19
2022-08-14T14:12:38.475Z,97492.28
2022-08-14T14:15:13.826Z,97479.03
2022-08-14T14:17:46.543Z,97472.91
2022-08-14T14:20:35.949Z,97463.63
2022-08-14T14:23:12.167Z,97477.94
2022-08-14T14:25:51.225Z,97466.00
2022-08-14T14:28:34.223Z,97471.66
2022-08-14T14:31:05.846Z,97478.75
2022-08-14T14:33:46.669Z,97480.22
2022-08-14T14:36:25.381Z,97475.63
2022-08-14T14:38:58.192Z,97484.00
2022-08-14T14:41:38.076Z,97474.25
2022-08-14T14:44:13.591Z,97473.03
2022-08-14T14:46:51.155Z,97463.56
2022-08-14T14:49:31.994Z,97470.56
2022-08-14T14:52:27.353Z,97463.25
2022-08-14T14:54:59.050Z,97464.09
2022-08-14T14:57:35.540Z,97470.16
2022-08-14T15:00:12.602Z,97467.16
2022-08-14T15:02:47.306Z,97470.63
2022-08-14T15:05:23.449Z,97465.81
2022-08-14T15:07:59.044Z,97460.72
2022-08-14T15:10:34.223Z,97457.94
2022-08-14T15:13:07.250Z,97452.41
2022-08-14T15:15:38.062Z,97457.91
2022-08-14T15:18:36.389Z,97452.09
2022-08-14T15:21:02.620Z,97445.22
2022-08-14T15:23:43.719Z,97437.41
2022-08-14T15:26:24.070Z,97441.41
2022-08-14T15:29:05.717Z,97447.09
2022-08-14T15:31:37.319Z,97431.53
2022-08-14T15:34:44.795Z,97425.69
2022-08-14T15:37:06.615Z,97425.56
2022-08-14T15:39:44.381Z,97415.16
2022-08-14T15:42:16.123Z,97418.44
2022-08-14T15:44:58.047Z,97429.09
2022-08-14T15:47:34.715Z,97418.19
2022-08-14T15:50:09.641Z,97410.66
2022-08-14T15:52:42.932Z,97404.81
2022-08-14T15:55:16.394Z,97401.03
2022-08-14T15:57:51.440Z,97405.66
2022-08-14T16:00:51.981Z,97403.47
2022-08-14T16:03:27.203Z,97404.44
2022-08-14T16:06:10.633Z,97390.97
2022-08-14T16:08:40.947Z,97392.16
2022-08-14T16:11:13.208Z,97404.75
2022-08-14T16:13:44.367Z,97419.34
2022-08-14T16:16:47.378Z,97420.47
2022-08-14T16:19:11.151Z,97408.56
2022-08-14T16:22:02.255Z,97389.75
2022-08-14T16:24:36.060Z,97388.59
2022-08-14T16:27:39.022Z,97385.13
2022-08-14T16:30:25.227Z,97387.47
2022-08-14T16:35:55.906Z,97377.16
2022-08-14T16:38:45.854Z,97376.19
2022-08-14T16:40:24.515Z,97373.47
2022-08-14T16:41:22.971Z,97387.91
2022-08-14T16:44:01.349Z,97391.81
2022-08-14T16:46:34.851Z,97389.00
2022-08-14T16:49:07.166Z,97388.59
2022-08-14T16:51:39.021Z,97391.88
2022-08-14T16:54:34.381Z,97383.28
2022-08-14T16:57:17.231Z,97379.25
2022-08-14T16:59:52.204Z,97382.72
2022-08-14T17:02:38.950Z,97372.81
2022-08-14T17:05:24.819Z,97375.63
2022-08-14T17:08:41.812Z,97382.09
2022-08-14T17:11:10.522Z,97385.16
2022-08-14T17:13:58.371Z,97387.13
2022-08-14T17:16:38.176Z,97389.09
2022-08-14T17:19:13.613Z,97381.44
2022-08-14T17:21:47.327Z,97375.25
2022-08-14T17:24:57.979Z,97373.09
2022-08-14T17:27:09.421Z,97380.88
2022-08-14T17:32:56.629Z,97376.94
2022-08-14T17:35:58.809Z,97389.00
2022-08-14T17:38:38.383Z,97387.03
2022-08-14T17:41:23.854Z,97385.91
2022-08-14T17:44:10.807Z,97378.31
2022-08-14T17:46:43.944Z,97375.66
2022-08-14T17:49:18.361Z,97369.78
2022-08-14T17:52:07.711Z,97374.03
2022-08-14T17:54:52.911Z,97375.56
2022-08-14T17:57:35.344Z,97369.78
2022-08-14T18:00:14.777Z,97359.31
2022-08-14T18:02:50.821Z,97366.41
2022-08-14T18:06:06.937Z,97364.19
2022-08-14T18:08:33.733Z,97376.00
2022-08-14T18:11:03.499Z,97383.84
2022-08-14T18:13:51.259Z,97378.53
2022-08-14T18:16:22.968Z,97372.75
2022-08-14T18:18:52.738Z,97372.38
2022-08-14T18:21:41.442Z,97384.81
2022-08-14T18:24:19.913Z,97391.88
2022-08-14T18:27:08.663Z,97391.16
2022-08-14T18:29:54.493Z,97389.19
2022-08-14T18:32:47.427Z,97390.06
2022-08-14T18:35:56.739Z,97386.72
2022-08-14T18:38:55.124Z,97391.38
2022-08-14T18:41:36.981Z,97395.91
2022-08-14T18:44:10.131Z,97398.28
2022-08-14T18:47:23.799Z,97403.28
2022-08-14T18:50:27.734Z,97405.97
2022-08-14T18:52:55.106Z,97408.88
2022-08-14T18:55:54.072Z,97412.09
2022-08-14T18:58:31.496Z,97414.44
2022-08-14T19:01:06.066Z,97425.16
2022-08-14T19:04:01.595Z,97417.09
2022-08-14T19:06:56.581Z,97425.16
2022-08-14T19:09:57.819Z,97424.22
2022-08-14T19:13:05.445Z,97425.81
2022-08-14T19:15:44.549Z,97429.19
2022-08-14T19:18:38.360Z,97431.53
2022-08-14T19:21:24.015Z,97428.66
2022-08-14T19:24:29.613Z,97426.91
2022-08-14T19:27:19.488Z,97428.47
2022-08-14T19:30:24.446Z,97427.72
2022-08-14T19:33:02.500Z,97437.09
2022-08-14T19:35:56.032Z,97436.03
2022-08-14T19:38:54.659Z,97436.34
2022-08-14T19:41:30.671Z,97434.25
2022-08-14T19:44:13.635Z,97438.16
2022-08-14T19:47:01.041Z,97425.91
2022-08-14T19:50:08.728Z,97440.50
2022-08-14T19:52:26.858Z,97441.03
2022-08-14T19:55:00.486Z,97444.16
2022-08-14T19:57:31.960Z,97438.41
2022-08-14T20:00:28.438Z,97438.94
2022-08-14T20:03:11.389Z,97432.72
2022-08-14T20:05:43.010Z,97431.66
2022-08-14T20:11:07.164Z,97437.13
2022-08-14T20:11:20.888Z,97438.94
2022-08-14T20:14:01.735Z,97437.66
2022-08-14T20:16:34.838Z,97435.28
2022-08-14T20:19:23.233Z,97438.16
2022-08-14T20:22:18.061Z,97440.25
2022-08-14T20:24:47.313Z,97436.56
2022-08-14T20:27:33.721Z,97440.72
2022-08-14T20:30:37.614Z,97439.94
2022-08-14T20:33:11.502Z,97436.84
2022-08-14T20:35:49.219Z,97429.25
2022-08-14T20:38:20.685Z,97423.50
2022-08-14T20:41:06.659Z,97419.34
2022-08-14T20:43:59.502Z,97410.22
2022-08-14T20:46:38.675Z,97416.75
2022-08-14T20:49:12.485Z,97410.72
2022-08-14T20:51:54.776Z,97406.28
2022-08-14T20:54:34.062Z,97404.19
2022-08-14T20:57:12.053Z,97409.09
2022-08-14T20:59:48.734Z,97417.41
2022-08-14T21:02:46.610Z,97418.44
2022-08-14T21:05:33.784Z,97414.78
2022-08-14T21:08:09.588Z,97416.38
2022-08-14T21:10:56.760Z,97413.78
2022-08-14T21:14:20.530Z,97411.03
2022-08-14T21:16:33.016Z,97417.06
2022-08-14T21:19:05.668Z,97409.59
2022-08-14T21:21:41.620Z,97412.22
2022-08-14T21:24:38.378Z,97410.91
2022-08-14T21:27:19.686Z,97414.78
2022-08-14T21:29:54.275Z,97413.91
2022-08-14T21:32:50.201Z,97412.59
2022-08-14T21:35:22.805Z,97416.81
2022-08-14T21:37:53.927Z,97409.47
2022-08-14T21:40:41.849Z,97414.66
2022-08-14T21:43:18.046Z,97420.91
2022-08-14T21:45:51.652Z,97427.06
2022-08-14T21:48:25.323Z,97424.91
2022-08-14T21:51:53.808Z,97427.16
2022-08-14T21:53:59.661Z,97426.88
2022-08-14T21:56:38.703Z,97431.00
2022-08-14T21:59:18.290Z,97429.72
2022-08-14T22:02:01.003Z,97435.16
2022-08-14T22:04:40.633Z,97442.44
2022-08-14T22:07:17.327Z,97434.22
2022-08-14T22:09:55.002Z,97432.09
2022-08-14T22:12:57.608Z,97432.41
2022-08-14T22:15:17.986Z,97442.22
2022-08-14T22:17:54.171Z,97431.84
2022-08-14T22:20:28.092Z,97432.09
2022-08-14T22:23:06.053Z,97436.78
2022-08-14T22:25:41.044Z,97426.09
2022-08-14T22:28:17.700Z,97424.28
2022-08-14T22:30:54.786Z,97411.00
2022-08-14T22:33:31.066Z,97404.25
2022-08-14T22:36:25.463Z,97412.06
2022-08-14T22:38:56.761Z,97405.31
2022-08-14T22:41:32.699Z,97403.94
2022-08-14T22:44:10.858Z,97401.94
2022-08-14T22:46:43.293Z,97403.44
2022-08-14T22:49:16.336Z,97402.09
2022-08-14T22:52:31.547Z,97392.63
2022-08-14T22:54:58.871Z,97386.22
2022-08-14T22:57:37.571Z,97385.66
2022-08-14T23:00:16.546Z,97381.09
2022-08-14T23:02:46.781Z,97386.69
2022-08-14T23:05:16.582Z,97391.28
2022-08-14T23:08:58.331Z,97390.50
2022-08-14T23:10:56.740Z,97387.13
2022-08-14T23:13:26.504Z,97392.97
2022-08-14T23:16:00.296Z,97392.59
2022-08-14T23:18:30.362Z,97394.69
2022-08-14T23:20:59.626Z,97382.03
2022-08-14T23:23:29.204Z,97396.91
2022-08-14T23:26:49.848Z,97379.59
2022-08-14T23:28:56.930Z,97377.16
2022-08-14T23:31:35.599Z,97368.41
2022-08-14T23:36:55.479Z,97361.31
2022-08-14T23:39:31.093Z,97370.53
2022-08-14T23:42:04.643Z,97364.94
2022-08-14T23:44:37.074Z,97364.53
2022-08-14T23:47:11.922Z,97370.97
2022-08-14T23:50:00.719Z,97368.41
2022-08-14T23:52:56.379Z,97373.91
2022-08-14T23:55:30.259Z,97362.81
2022-08-14T23:58:00.662Z,97359.97
